createdAt,value
2023-05-10T00:04:38.158Z,4.10
2023-05-10T00:09:41.303Z,4.60
2023-05-10T00:14:44.208Z,4.50
2023-05-10T00:19:47.214Z,4.40
2023-05-10T00:24:50.129Z,4.40
2023-05-10T00:29:53.026Z,4.70
2023-05-10T00:34:56.297Z,4.70
2023-05-10T00:39:59.138Z,4.60
2023-05-10T00:45:02.042Z,5.20
2023-05-10T00:50:06.485Z,6.10
2023-05-10T00:55:13.380Z,6.00
2023-05-10T01:00:19.382Z,5.80
2023-05-10T01:05:22.883Z,5.70
2023-05-10T01:10:26.145Z,5.30
2023-05-10T01:15:29.125Z,5.50
2023-05-10T01:20:48.124Z,5.00
2023-05-10T01:26:18.736Z,5.20
2023-05-10T01:31:53.382Z,4.70
2023-05-10T01:37:04.170Z,5.00
2023-05-10T01:42:12.970Z,4.80
2023-05-10T01:47:22.585Z,4.70
2023-05-10T01:52:34.083Z,4.70
2023-05-10T01:57:40.888Z,4.90
2023-05-10T02:02:48.516Z,4.60
2023-05-10T02:07:52.971Z,4.30
2023-05-10T02:12:59.857Z,3.80
2023-05-10T02:18:04.950Z,3.90
2023-05-10T02:23:09.836Z,4.60
2023-05-10T02:28:14.190Z,4.90
2023-05-10T02:33:18.417Z,5.40
2023-05-10T02:38:23.777Z,5.00
2023-05-10T02:43:27.349Z,5.00
2023-05-10T02:48:30.771Z,4.50
2023-05-10T02:53:39.863Z,4.30
2023-05-10T02:58:42.758Z,3.90
2023-05-10T03:03:46.281Z,4.20
2023-05-10T03:08:49.180Z,5.20
2023-05-10T03:14:14.107Z,5.00
2023-05-10T03:19:37.179Z,4.20
2023-05-10T03:24:42.441Z,4.00
2023-05-10T03:29:47.714Z,4.10
2023-05-10T03:34:51.126Z,4.30
2023-05-10T03:39:54.027Z,4.10
2023-05-10T03:44:57.024Z,4.00
2023-05-10T03:50:00.045Z,5.10
2023-05-10T03:55:04.807Z,3.70
2023-05-10T04:00:09.282Z,4.40
2023-05-10T04:05:12.586Z,4.50
2023-05-10T04:10:16.561Z,4.20
2023-05-10T04:15:19.679Z,4.50
2023-05-10T04:20:22.577Z,4.50
2023-05-10T04:25:25.380Z,3.90
2023-05-10T04:30:30.334Z,4.40
2023-05-10T04:35:33.541Z,4.10
2023-05-10T04:40:37.058Z,4.80
2023-05-10T04:45:39.959Z,4.30
2023-05-10T04:50:43.274Z,4.70
2023-05-10T04:55:46.591Z,5.30
2023-05-10T05:00:49.526Z,5.70
2023-05-10T05:05:52.513Z,4.80
2023-05-10T05:10:55.918Z,4.20
2023-05-10T05:16:01.707Z,4.80
2023-05-10T05:21:04.595Z,4.70
2023-05-10T05:26:07.494Z,4.30
2023-05-10T05:31:10.556Z,4.00
2023-05-10T05:36:13.618Z,4.40
2023-05-10T05:41:16.518Z,4.70
2023-05-10T05:46:20.415Z,4.10
2023-05-10T05:51:23.632Z,4.00
2023-05-10T05:56:26.667Z,4.00
2023-05-10T06:01:29.668Z,4.20
2023-05-10T06:06:33.404Z,4.80
2023-05-10T06:11:36.562Z,3.80
2023-05-10T06:16:39.423Z,3.70
2023-05-10T06:21:42.732Z,3.20
2023-05-10T06:26:45.631Z,3.40
2023-05-10T06:31:49.322Z,3.60
2023-05-10T06:36:53.024Z,3.20
2023-05-10T06:41:56.084Z,3.50
2023-05-10T06:46:59.085Z,3.40
2023-05-10T06:52:02.196Z,3.00
2023-05-10T06:57:10.755Z,3.20
2023-05-10T07:02:19.538Z,2.90
2023-05-10T07:07:22.679Z,2.80
2023-05-10T07:12:26.592Z,2.60
2023-05-10T07:17:29.782Z,2.70
2023-05-10T07:22:32.937Z,2.60
2023-05-10T07:27:36.661Z,2.60
2023-05-10T07:32:40.798Z,2.50
2023-05-10T07:37:43.706Z,3.50
2023-05-10T07:42:46.667Z,2.50
2023-05-10T07:47:49.645Z,2.60
2023-05-10T07:52:52.819Z,2.60
2023-05-10T07:57:55.815Z,2.60
2023-05-10T08:02:58.854Z,2.90
2023-05-10T08:08:01.936Z,2.40
2023-05-10T08:13:04.841Z,2.80
2023-05-10T08:18:07.824Z,2.60
2023-05-10T08:23:10.950Z,2.50
2023-05-10T08:28:13.958Z,2.60
2023-05-10T08:33:17.308Z,2.60
2023-05-10T08:38:20.185Z,2.20
2023-05-10T08:43:27.173Z,2.60
2023-05-10T08:48:31.204Z,3.00
2023-05-10T08:53:37.423Z,2.40
2023-05-10T08:58:40.571Z,2.90
2023-05-10T09:03:44.111Z,2.40
2023-05-10T09:08:47.405Z,2.90
2023-05-10T09:13:52.787Z,2.40
2023-05-10T09:18:55.781Z,2.40
2023-05-10T09:24:04.499Z,2.50
2023-05-10T09:29:09.742Z,2.70
2023-05-10T09:34:12.716Z,2.40
2023-05-10T09:39:15.624Z,2.50
2023-05-10T09:44:20.088Z,2.50
2023-05-10T09:49:24.091Z,2.40
2023-05-10T09:54:26.990Z,2.40
2023-05-10T09:59:30.660Z,2.30
2023-05-10T10:04:40.229Z,2.80
2023-05-10T10:09:43.281Z,2.80
2023-05-10T10:14:48.226Z,2.70
2023-05-10T10:19:51.551Z,2.50
2023-05-10T10:24:55.849Z,2.60
2023-05-10T10:30:30.836Z,3.00
2023-05-10T10:35:35.196Z,2.80
2023-05-10T10:40:39.213Z,2.60
2023-05-10T10:45:42.627Z,2.50
2023-05-10T10:50:47.261Z,2.50
2023-05-10T10:55:50.187Z,2.60
2023-05-10T11:01:17.574Z,2.30
2023-05-10T11:06:32.877Z,2.10
2023-05-10T11:11:37.028Z,2.20
2023-05-10T11:16:44.755Z,2.50
2023-05-10T11:22:06.048Z,2.20
2023-05-10T11:27:09.233Z,2.40
2023-05-10T11:32:12.253Z,2.30
2023-05-10T11:37:15.077Z,2.40
2023-05-10T11:42:18.267Z,2.30
2023-05-10T11:47:21.274Z,2.10
2023-05-10T11:52:24.691Z,2.10
2023-05-10T11:57:28.685Z,2.30
2023-05-10T12:02:32.416Z,2.50
2023-05-10T12:07:36.474Z,2.30
2023-05-10T12:12:48.728Z,2.00
2023-05-10T12:17:52.322Z,2.00
2023-05-10T12:23:00.680Z,2.10
2023-05-10T12:28:09.562Z,2.50
2023-05-10T12:33:18.671Z,2.30
2023-05-10T12:38:44.235Z,2.60
2023-05-10T12:43:47.664Z,2.30
2023-05-10T12:49:00.232Z,2.10
2023-05-10T12:54:10.135Z,2.40
2023-05-10T12:59:12.958Z,2.20
2023-05-10T13:04:16.033Z,2.30
2023-05-10T13:09:19.028Z,2.10
2023-05-10T13:14:22.232Z,2.10
2023-05-10T13:19:25.223Z,2.40
2023-05-10T13:24:28.038Z,2.40
2023-05-10T13:29:30.836Z,2.40
2023-05-10T13:34:33.621Z,2.00
2023-05-10T13:39:38.479Z,2.10
2023-05-10T13:44:41.747Z,2.40
2023-05-10T13:49:44.562Z,2.10
2023-05-10T13:54:47.351Z,2.10
2023-05-10T13:59:50.233Z,2.30
2023-05-10T14:04:53.112Z,2.00
2023-05-10T14:09:56.218Z,2.00
2023-05-10T14:14:59.334Z,2.10
2023-05-10T14:20:02.438Z,2.00
2023-05-10T14:25:05.969Z,2.20
2023-05-10T14:30:09.293Z,2.10
2023-05-10T14:35:14.494Z,2.20
2023-05-10T14:40:18.979Z,1.90
2023-05-10T14:45:22.157Z,2.10
2023-05-10T14:50:35.829Z,2.20
2023-05-10T14:55:40.093Z,3.70
2023-05-10T15:00:43.431Z,1.80
2023-05-10T15:05:47.910Z,2.30
2023-05-10T15:10:50.656Z,2.30
2023-05-10T15:15:53.683Z,2.40
2023-05-10T15:20:57.046Z,2.60
2023-05-10T15:26:01.854Z,2.40
2023-05-10T15:31:05.042Z,2.30
2023-05-10T15:36:08.326Z,2.20
2023-05-10T15:41:11.614Z,2.20
2023-05-10T15:46:14.480Z,2.20
2023-05-10T15:51:17.588Z,2.60
2023-05-10T15:56:21.274Z,2.20
2023-05-10T16:01:24.335Z,2.50
2023-05-10T16:06:27.525Z,2.20
2023-05-10T16:11:30.510Z,2.20
2023-05-10T16:16:33.708Z,2.10
2023-05-10T16:21:36.821Z,2.00
2023-05-10T16:26:41.338Z,2.20
2023-05-10T16:31:44.370Z,2.30
2023-05-10T16:36:47.280Z,2.60
2023-05-10T16:41:50.177Z,2.20
2023-05-10T16:46:53.520Z,2.70
2023-05-10T16:51:56.321Z,2.70
2023-05-10T16:56:59.621Z,2.50
2023-05-10T17:02:02.561Z,2.40
2023-05-10T17:07:06.450Z,2.20
2023-05-10T17:12:09.447Z,2.30
2023-05-10T17:17:12.350Z,2.40
2023-05-10T17:22:15.672Z,2.30
2023-05-10T17:27:18.678Z,2.40
2023-05-10T17:32:21.727Z,2.60
2023-05-10T17:37:24.688Z,2.30
2023-05-10T17:42:27.494Z,2.60
2023-05-10T17:47:30.523Z,2.70
2023-05-10T17:52:33.828Z,2.50
2023-05-10T17:57:38.970Z,2.60
2023-05-10T18:02:42.220Z,2.50
2023-05-10T18:07:45.690Z,2.60
2023-05-10T18:12:50.747Z,2.60
2023-05-10T18:17:53.686Z,2.50
2023-05-10T18:22:58.561Z,2.80
2023-05-10T18:28:01.626Z,2.60
2023-05-10T18:33:04.595Z,2.60
2023-05-10T18:38:09.912Z,2.70
2023-05-10T18:43:12.851Z,3.20
2023-05-10T18:48:15.692Z,3.20
2023-05-10T18:53:18.697Z,2.90
2023-05-10T18:58:22.513Z,3.20
2023-05-10T19:03:25.421Z,2.90
2023-05-10T19:08:28.935Z,3.10
2023-05-10T19:13:31.737Z,2.90
2023-05-10T19:18:35.388Z,3.40
2023-05-10T19:23:43.286Z,3.10
2023-05-10T19:28:46.537Z,3.40
2023-05-10T19:33:49.690Z,3.30
2023-05-10T19:38:53.820Z,3.10
2023-05-10T19:43:56.746Z,3.20
2023-05-10T19:48:59.505Z,3.20
2023-05-10T19:54:02.877Z,3.20
2023-05-10T19:59:07.918Z,3.30
2023-05-10T20:04:11.096Z,3.20
2023-05-10T20:09:14.029Z,3.70
2023-05-10T20:14:18.220Z,4.30
2023-05-10T20:19:21.068Z,3.40
2023-05-10T20:24:23.968Z,3.80
2023-05-10T20:29:27.076Z,4.20
2023-05-10T20:34:31.123Z,3.80
2023-05-10T20:39:33.930Z,4.00
2023-05-10T20:44:36.814Z,4.20
2023-05-10T20:49:40.129Z,4.00
2023-05-10T20:54:43.441Z,3.90
2023-05-10T20:59:46.346Z,3.70
2023-05-10T21:04:49.295Z,3.70
2023-05-10T21:09:52.793Z,3.80
2023-05-10T21:14:55.775Z,4.20
2023-05-10T21:19:58.686Z,4.30
2023-05-10T21:25:01.707Z,4.40
2023-05-10T21:30:05.483Z,5.20
2023-05-10T21:35:09.234Z,4.80
2023-05-10T21:40:13.106Z,4.30
2023-05-10T21:45:17.297Z,4.10
2023-05-10T21:50:20.731Z,4.70
2023-05-10T21:55:24.029Z,3.80
2023-05-10T22:00:26.929Z,4.10
2023-05-10T22:05:30.044Z,4.00
2023-05-10T22:10:33.919Z,3.50
2023-05-10T22:15:37.186Z,3.90
2023-05-10T22:20:40.086Z,4.20
2023-05-10T22:25:43.090Z,4.00
2023-05-10T22:30:46.051Z,4.10
2023-05-10T22:35:49.005Z,4.30
2023-05-10T22:40:51.720Z,3.60
2023-05-10T22:45:55.013Z,4.00
2023-05-10T22:50:57.818Z,4.50
2023-05-10T22:56:01.373Z,4.00
2023-05-10T23:01:04.446Z,4.70
2023-05-10T23:06:07.351Z,3.90
2023-05-10T23:11:10.255Z,4.40
2023-05-10T23:16:13.524Z,4.40
2023-05-10T23:21:17.597Z,4.60
2023-05-10T23:26:22.783Z,4.70
2023-05-10T23:31:25.879Z,4.90
2023-05-10T23:36:28.794Z,4.40
2023-05-10T23:41:31.976Z,3.20
2023-05-10T23:46:34.742Z,3.80
2023-05-10T23:51:37.556Z,3.20
2023-05-10T23:56:40.486Z,4.00
